Wetterdaten vom Mittwoch, 22. Mai 2019

Temperatur Taupunkt Windchill Luftfeuchte Luftdruck Solarstrahlung Regen ET
(Verdunstung von Wasser)
Wind
Max 16.8 °C
14:30
12 °C
13:40
16.3 °C
14:45
92%
00:00
1017 hPa
22:50
1069 W/m²
13:35
15 km/h
13:15 km/h
Durchschnitt 12.7 °C 9.8 °C 12.2 °C 83% 1014.7 hPa 226 W/m² 0 mm 2.083 mm 5.2 km/h
Min 9.5 °C
23:20
7.1 °C
23:20
8.5 °C
00:25
67%
14:25
1011.6 hPa
00:00
0 km/h (Böe)
06:45 km/h
Zeit
00:00 11.4 °C 10.1 °C 10.7 °C 92% 1011.6 hPa 0 W/m² 0.0 mm 0.000 mm 7.5 km/h
00:05 11.4 °C 10.1 °C 10.0 °C 92% 1011.8 hPa 0 W/m² 0.0 mm 0.000 mm 8.5 km/h
00:10 11.4 °C 10.1 °C 8.7 °C 92% 1011.8 hPa 0 W/m² 0.0 mm 0.000 mm 10.9 km/h
00:15 11.4 °C 10.1 °C 9.4 °C 92% 1011.9 hPa 0 W/m² 0.0 mm 0.000 mm 9.5 km/h
00:20 11.4 °C 10.1 °C 9.6 °C 92% 1011.8 hPa 0 W/m² 0.0 mm 0.000 mm 9.1 km/h
00:25 11.4 °C 10.1 °C 8.5 °C 92% 1011.9 hPa 0 W/m² 0.0 mm 0.000 mm 11.2 km/h
00:30 11.4 °C 10.1 °C 9.0 °C 92% 1011.9 hPa 0 W/m² 0.0 mm 0.000 mm 10.3 km/h
00:35 11.4 °C 10.1 °C 10.4 °C 92% 1012.0 hPa 0 W/m² 0.0 mm 0.000 mm 7.9 km/h
00:40 11.4 °C 10.1 °C 10.6 °C 92% 1012.1 hPa 0 W/m² 0.0 mm 0.000 mm 7.6 km/h
00:45 11.4 °C 10.1 °C 11.4 °C 92% 1012.0 hPa 0 W/m² 0.0 mm 0.000 mm 5.6 km/h
00:50 11.4 °C 10.1 °C 10.0 °C 92% 1011.8 hPa 0 W/m² 0.0 mm 0.000 mm 8.5 km/h
00:55 11.4 °C 10.1 °C 11.4 °C 92% 1012.0 hPa 0 W/m² 0.0 mm 0.000 mm 6.5 km/h
01:00 11.4 °C 10.1 °C 9.8 °C 92% 1011.9 hPa 0 W/m² 0.0 mm 0.000 mm 8.9 km/h
01:05 11.4 °C 10.1 °C 11.4 °C 92% 1012.1 hPa 0 W/m² 0.0 mm 0.000 mm 6.1 km/h
01:10 11.4 °C 10.1 °C 10.2 °C 92% 1012.1 hPa 0 W/m² 0.0 mm 0.000 mm 8.2 km/h
01:15 11.4 °C 10.1 °C 10.9 °C 92% 1012.1 hPa 0 W/m² 0.0 mm 0.000 mm 7.2 km/h
01:20 11.4 °C 10.1 °C 11.4 °C 92% 1012.1 hPa 0 W/m² 0.0 mm 0.000 mm 5.0 km/h
01:25 11.3 °C 10.0 °C 10.8 °C 92% 1012.1 hPa 0 W/m² 0.0 mm 0.000 mm 7.1 km/h
01:30 11.3 °C 10.0 °C 11.3 °C 92% 1012.1 hPa 0 W/m² 0.0 mm 0.000 mm 5.7 km/h
01:35 11.3 °C 10.0 °C 10.5 °C 92% 1012.1 hPa 0 W/m² 0.0 mm 0.000 mm 7.6 km/h
01:40 11.3 °C 10.0 °C 10.2 °C 92% 1012.2 hPa 0 W/m² 0.0 mm 0.000 mm 8.0 km/h
01:45 11.4 °C 10.0 °C 10.0 °C 91% 1012.2 hPa 0 W/m² 0.0 mm 0.000 mm 8.5 km/h
01:50 11.4 °C 10.1 °C 11.4 °C 92% 1012.3 hPa 0 W/m² 0.0 mm 0.000 mm 3.2 km/h
01:55 11.4 °C 10.0 °C 10.3 °C 91% 1012.3 hPa 0 W/m² 0.0 mm 0.000 mm 8.1 km/h
02:00 11.4 °C 10.1 °C 11.4 °C 92% 1012.4 hPa 0 W/m² 0.0 mm 0.000 mm 4.6 km/h
02:05 11.3 °C 9.9 °C 11.3 °C 91% 1012.1 hPa 0 W/m² 0.0 mm 0.000 mm 5.2 km/h
02:10 11.3 °C 9.9 °C 11.2 °C 91% 1012.3 hPa 0 W/m² 0.0 mm 0.000 mm 6.6 km/h
02:15 11.3 °C 9.9 °C 11.3 °C 91% 1012.4 hPa 0 W/m² 0.0 mm 0.000 mm 3.9 km/h
02:20 11.3 °C 10.0 °C 11.3 °C 92% 1012.4 hPa 0 W/m² 0.0 mm 0.000 mm 3.3 km/h
02:25 11.3 °C 10.0 °C 11.3 °C 92% 1012.3 hPa 0 W/m² 0.0 mm 0.000 mm 3.3 km/h
02:30 11.3 °C 9.9 °C 11.3 °C 91% 1012.4 hPa 0 W/m² 0.0 mm 0.000 mm 5.1 km/h
02:35 11.3 °C 9.9 °C 11.3 °C 91% 1012.3 hPa 0 W/m² 0.0 mm 0.000 mm 5.0 km/h
02:40 11.3 °C 9.9 °C 11.3 °C 91% 1012.2 hPa 0 W/m² 0.0 mm 0.000 mm 2.6 km/h
02:45 11.3 °C 9.9 °C 11.3 °C 91% 1012.3 hPa 0 W/m² 0.0 mm 0.000 mm 4.5 km/h
02:50 11.3 °C 9.9 °C 11.3 °C 91% 1012.4 hPa 0 W/m² 0.0 mm 0.000 mm 4.2 km/h
02:55 11.3 °C 9.9 °C 11.3 °C 91% 1012.4 hPa 0 W/m² 0.0 mm 0.000 mm 4.8 km/h
03:00 11.3 °C 9.9 °C 11.3 °C 91% 1012.4 hPa 0 W/m² 0.0 mm 0.000 mm 3.3 km/h
03:05 11.3 °C 9.9 °C 11.3 °C 91% 1012.3 hPa 0 W/m² 0.0 mm 0.000 mm 4.7 km/h
03:10 11.3 °C 9.9 °C 11.3 °C 91% 1012.3 hPa 0 W/m² 0.0 mm 0.000 mm 5.6 km/h
03:15 11.3 °C 9.9 °C 11.3 °C 91% 1012.3 hPa 0 W/m² 0.0 mm 0.000 mm 4.4 km/h
03:20 11.3 °C 9.9 °C 11.3 °C 91% 1012.5 hPa 0 W/m² 0.0 mm 0.000 mm 3.2 km/h
03:25 11.3 °C 9.9 °C 11.3 °C 91% 1012.6 hPa 0 W/m² 0.0 mm 0.000 mm 4.5 km/h
03:30 11.3 °C 9.9 °C 11.3 °C 91% 1012.7 hPa 0 W/m² 0.0 mm 0.000 mm 3.6 km/h
03:35 11.3 °C 9.9 °C 11.3 °C 91% 1012.4 hPa 0 W/m² 0.0 mm 0.000 mm 5.2 km/h
03:40 11.3 °C 9.9 °C 10.1 °C 91% 1012.6 hPa 0 W/m² 0.0 mm 0.000 mm 8.2 km/h
03:45 11.3 °C 9.9 °C 10.5 °C 91% 1012.4 hPa 0 W/m² 0.0 mm 0.000 mm 7.6 km/h
03:50 11.3 °C 9.9 °C 9.9 °C 91% 1012.6 hPa 0 W/m² 0.0 mm 0.000 mm 8.5 km/h
03:55 11.2 °C 9.8 °C 9.9 °C 91% 1012.5 hPa 0 W/m² 0.0 mm 0.000 mm 8.4 km/h
04:00 11.2 °C 9.8 °C 10.8 °C 91% 1012.7 hPa 0 W/m² 0.0 mm 0.000 mm 7.0 km/h
04:05 11.2 °C 9.8 °C 11.2 °C 91% 1012.6 hPa 0 W/m² 0.0 mm 0.000 mm 6.0 km/h
04:10 11.2 °C 9.8 °C 9.9 °C 91% 1012.8 hPa 0 W/m² 0.0 mm 0.000 mm 8.3 km/h
04:15 11.2 °C 9.8 °C 10.9 °C 91% 1012.8 hPa 0 W/m² 0.0 mm 0.000 mm 6.9 km/h
04:20 11.2 °C 9.8 °C 11.2 °C 91% 1012.7 hPa 0 W/m² 0.0 mm 0.000 mm 6.0 km/h
04:25 11.2 °C 9.8 °C 10.8 °C 91% 1012.9 hPa 0 W/m² 0.0 mm 0.000 mm 7.0 km/h
04:30 11.2 °C 9.8 °C 9.1 °C 91% 1013.0 hPa 0 W/m² 0.0 mm 0.000 mm 9.6 km/h
04:35 11.2 °C 9.8 °C 9.8 °C 91% 1013.1 hPa 0 W/m² 0.0 mm 0.000 mm 8.5 km/h
04:40 11.2 °C 9.8 °C 9.7 °C 91% 1013.1 hPa 0 W/m² 0.0 mm 0.000 mm 8.7 km/h
04:45 11.2 °C 9.9 °C 11.2 °C 92% 1013.1 hPa 0 W/m² 0.0 mm 0.000 mm 6.3 km/h
04:50 11.1 °C 9.8 °C 11.1 °C 92% 1013.1 hPa 0 W/m² 0.0 mm 0.000 mm 5.7 km/h
04:55 11.1 °C 9.8 °C 11.1 °C 92% 1013.1 hPa 0 W/m² 0.0 mm 0.000 mm 5.9 km/h
05:00 11.1 °C 9.8 °C 11.1 °C 92% 1013.1 hPa 0 W/m² 0.0 mm 0.000 mm 3.6 km/h
05:05 11.0 °C 9.8 °C 11.0 °C 92% 1013.2 hPa 0 W/m² 0.0 mm 0.000 mm 4.3 km/h
05:10 11.0 °C 9.8 °C 11.0 °C 92% 1013.3 hPa 0 W/m² 0.0 mm 0.000 mm 4.2 km/h
05:15 11.0 °C 9.8 °C 11.0 °C 92% 1013.3 hPa 0 W/m² 0.0 mm 0.000 mm 2.2 km/h
05:20 11.0 °C 9.8 °C 11.0 °C 92% 1013.2 hPa 0 W/m² 0.0 mm 0.000 mm 2.5 km/h
05:25 10.9 °C 9.7 °C 10.9 °C 92% 1013.3 hPa 0 W/m² 0.0 mm 0.000 mm 6.0 km/h
05:30 10.9 °C 9.7 °C 10.9 °C 92% 1013.2 hPa 0 W/m² 0.0 mm 0.000 mm 2.3 km/h
05:35 10.9 °C 9.7 °C 10.9 °C 92% 1013.3 hPa 0 W/m² 0.0 mm 0.000 mm 3.6 km/h
05:40 10.9 °C 9.7 °C 10.9 °C 92% 1013.4 hPa 0 W/m² 0.0 mm 0.000 mm 1.4 km/h
05:45 10.9 °C 9.7 °C 10.9 °C 92% 1013.4 hPa 0 W/m² 0.0 mm 0.000 mm 2.9 km/h
05:50 10.9 °C 9.7 °C 10.9 °C 92% 1013.4 hPa 0 W/m² 0.0 mm 0.000 mm 4.0 km/h
05:55 10.9 °C 9.7 °C 10.9 °C 92% 1013.4 hPa 7 W/m² 0.0 mm 0.000 mm 3.8 km/h
06:00 10.9 °C 9.7 °C 10.9 °C 92% 1013.3 hPa 12 W/m² 0.0 mm 0.000 mm 6.1 km/h
06:05 10.9 °C 9.7 °C 10.9 °C 92% 1013.4 hPa 11 W/m² 0.0 mm 0.000 mm 4.4 km/h
06:10 10.9 °C 9.7 °C 10.9 °C 92% 1013.5 hPa 12 W/m² 0.0 mm 0.000 mm 2.9 km/h
06:15 11.0 °C 9.8 °C 11.0 °C 92% 1013.4 hPa 13 W/m² 0.0 mm 0.000 mm 0.1 km/h
06:20 11.0 °C 9.8 °C 11.0 °C 92% 1013.5 hPa 12 W/m² 0.0 mm 0.000 mm 1.4 km/h
06:25 11.0 °C 9.8 °C 11.0 °C 92% 1013.4 hPa 12 W/m² 0.0 mm 0.000 mm 1.2 km/h
06:30 11.1 °C 9.8 °C 11.1 °C 92% 1013.4 hPa 12 W/m² 0.0 mm 0.000 mm 1.2 km/h
06:35 11.1 °C 9.8 °C 11.1 °C 92% 1013.5 hPa 12 W/m² 0.0 mm 0.000 mm 0.5 km/h
06:40 11.1 °C 9.8 °C 11.1 °C 92% 1013.6 hPa 15 W/m² 0.0 mm 0.000 mm 1.0 km/h
06:45 11.1 °C 9.8 °C 11.1 °C 92% 1013.6 hPa 21 W/m² 0.0 mm 0.000 mm 0.0 km/h
06:50 11.1 °C 9.8 °C 11.1 °C 92% 1013.7 hPa 32 W/m² 0.0 mm 0.000 mm 1.1 km/h
06:55 11.2 °C 9.9 °C 11.2 °C 92% 1013.8 hPa 33 W/m² 0.0 mm 0.000 mm 0.0 km/h
07:00 11.2 °C 9.9 °C 11.2 °C 92% 1013.8 hPa 39 W/m² 0.0 mm 0.000 mm 0.0 km/h
07:05 11.2 °C 9.9 °C 11.2 °C 92% 1013.9 hPa 51 W/m² 0.0 mm 0.000 mm 0.0 km/h
07:10 11.3 °C 10.0 °C 11.3 °C 92% 1013.8 hPa 68 W/m² 0.0 mm 0.000 mm 0.0 km/h
07:15 11.3 °C 10.0 °C 11.3 °C 92% 1013.9 hPa 75 W/m² 0.0 mm 0.000 mm 0.4 km/h
07:20 11.4 °C 10.1 °C 11.4 °C 92% 1013.8 hPa 74 W/m² 0.0 mm 0.000 mm 1.6 km/h
07:25 11.5 °C 10.1 °C 11.5 °C 91% 1013.7 hPa 67 W/m² 0.0 mm 0.000 mm 3.8 km/h
07:30 11.6 °C 10.2 °C 11.6 °C 91% 1013.9 hPa 59 W/m² 0.0 mm 0.000 mm 3.3 km/h
07:35 11.6 °C 10.2 °C 11.6 °C 91% 1014.0 hPa 67 W/m² 0.0 mm 0.000 mm 2.6 km/h
07:40 11.6 °C 10.0 °C 11.5 °C 90% 1013.9 hPa 73 W/m² 0.0 mm 0.000 mm 6.6 km/h
07:45 11.6 °C 10.0 °C 11.6 °C 90% 1013.9 hPa 61 W/m² 0.0 mm 0.000 mm 4.1 km/h
07:50 11.6 °C 10.2 °C 11.6 °C 91% 1014.0 hPa 56 W/m² 0.0 mm 0.000 mm 1.2 km/h
07:55 11.6 °C 10.0 °C 11.6 °C 90% 1014.0 hPa 49 W/m² 0.0 mm 0.000 mm 4.6 km/h
08:00 11.6 °C 10.2 °C 11.6 °C 91% 1014.0 hPa 46 W/m² 0.0 mm 0.025 mm 1.8 km/h
08:05 11.5 °C 9.9 °C 11.5 °C 90% 1014.1 hPa 46 W/m² 0.0 mm 0.000 mm 4.4 km/h
08:10 11.5 °C 10.1 °C 11.5 °C 91% 1014.2 hPa 50 W/m² 0.0 mm 0.000 mm 1.9 km/h
08:15 11.5 °C 10.1 °C 11.5 °C 91% 1014.3 hPa 59 W/m² 0.0 mm 0.000 mm 4.4 km/h
08:20 11.5 °C 10.1 °C 11.5 °C 91% 1014.3 hPa 48 W/m² 0.0 mm 0.000 mm 3.9 km/h
08:25 11.5 °C 10.1 °C 11.5 °C 91% 1014.3 hPa 46 W/m² 0.0 mm 0.000 mm 1.8 km/h
08:30 11.5 °C 10.1 °C 11.5 °C 91% 1014.4 hPa 50 W/m² 0.0 mm 0.000 mm 3.5 km/h
08:35 11.5 °C 9.9 °C 11.5 °C 90% 1014.4 hPa 61 W/m² 0.0 mm 0.000 mm 3.2 km/h
08:40 11.6 °C 10.2 °C 11.6 °C 91% 1014.4 hPa 60 W/m² 0.0 mm 0.000 mm 2.5 km/h
08:45 11.6 °C 10.2 °C 11.6 °C 91% 1014.5 hPa 51 W/m² 0.0 mm 0.000 mm 2.5 km/h
08:50 11.6 °C 10.2 °C 11.6 °C 91% 1014.5 hPa 52 W/m² 0.0 mm 0.000 mm 0.3 km/h
08:55 11.6 °C 10.0 °C 11.6 °C 90% 1014.5 hPa 53 W/m² 0.0 mm 0.000 mm 3.5 km/h
09:00 11.6 °C 10.0 °C 11.6 °C 90% 1014.5 hPa 53 W/m² 0.0 mm 0.026 mm 5.1 km/h
09:05 11.6 °C 10.0 °C 11.6 °C 90% 1014.7 hPa 77 W/m² 0.0 mm 0.000 mm 4.9 km/h
09:10 11.6 °C 10.0 °C 10.7 °C 90% 1014.6 hPa 73 W/m² 0.0 mm 0.000 mm 7.7 km/h
09:15 11.6 °C 10.0 °C 11.6 °C 90% 1014.6 hPa 73 W/m² 0.0 mm 0.000 mm 4.8 km/h
09:20 11.6 °C 10.0 °C 11.6 °C 90% 1014.6 hPa 75 W/m² 0.0 mm 0.000 mm 6.3 km/h
09:25 11.7 °C 10.1 °C 11.7 °C 90% 1014.6 hPa 86 W/m² 0.0 mm 0.000 mm 5.4 km/h
09:30 11.7 °C 10.1 °C 11.7 °C 90% 1014.7 hPa 91 W/m² 0.0 mm 0.000 mm 2.8 km/h
09:35 11.7 °C 10.1 °C 11.7 °C 90% 1014.7 hPa 93 W/m² 0.0 mm 0.000 mm 5.1 km/h
09:40 11.8 °C 10.2 °C 10.7 °C 90% 1014.9 hPa 108 W/m² 0.0 mm 0.000 mm 8.0 km/h
09:45 11.8 °C 10.0 °C 11.8 °C 89% 1014.7 hPa 110 W/m² 0.0 mm 0.000 mm 6.3 km/h
09:50 11.9 °C 10.3 °C 11.9 °C 90% 1014.7 hPa 119 W/m² 0.0 mm 0.000 mm 3.3 km/h
09:55 11.9 °C 10.3 °C 11.9 °C 90% 1014.7 hPa 111 W/m² 0.0 mm 0.000 mm 5.4 km/h
10:00 11.9 °C 10.1 °C 11.9 °C 89% 1014.7 hPa 118 W/m² 0.0 mm 0.051 mm 6.2 km/h
10:05 11.9 °C 10.1 °C 11.2 °C 89% 1014.9 hPa 109 W/m² 0.0 mm 0.000 mm 7.4 km/h
10:10 11.9 °C 10.1 °C 11.7 °C 89% 1014.7 hPa 121 W/m² 0.0 mm 0.000 mm 6.7 km/h
10:15 11.9 °C 10.1 °C 9.4 °C 89% 1014.8 hPa 138 W/m² 0.0 mm 0.000 mm 10.5 km/h
10:20 11.9 °C 10.1 °C 11.6 °C 89% 1014.9 hPa 182 W/m² 0.0 mm 0.000 mm 6.9 km/h
10:25 12.1 °C 10.3 °C 11.4 °C 89% 1014.9 hPa 123 W/m² 0.0 mm 0.000 mm 7.5 km/h
10:30 12.1 °C 10.3 °C 11.6 °C 89% 1014.8 hPa 146 W/m² 0.0 mm 0.000 mm 7.1 km/h
10:35 12.1 °C 10.2 °C 10.0 °C 88% 1015.1 hPa 109 W/m² 0.0 mm 0.000 mm 9.8 km/h
10:40 12.0 °C 10.1 °C 12.0 °C 88% 1015.0 hPa 70 W/m² 0.0 mm 0.000 mm 5.5 km/h
10:45 11.9 °C 10.1 °C 11.8 °C 89% 1015.2 hPa 64 W/m² 0.0 mm 0.000 mm 6.6 km/h
10:50 11.8 °C 10.0 °C 11.8 °C 89% 1015.0 hPa 68 W/m² 0.0 mm 0.000 mm 5.8 km/h
10:55 11.8 °C 10.0 °C 11.8 °C 89% 1015.3 hPa 74 W/m² 0.0 mm 0.000 mm 5.4 km/h
11:00 11.8 °C 10.0 °C 11.8 °C 89% 1015.4 hPa 90 W/m² 0.0 mm 0.050 mm 5.5 km/h
11:05 11.8 °C 10.0 °C 11.8 °C 89% 1015.3 hPa 82 W/m² 0.0 mm 0.000 mm 3.3 km/h
11:10 11.8 °C 10.0 °C 11.8 °C 89% 1015.3 hPa 82 W/m² 0.0 mm 0.000 mm 5.5 km/h
11:15 11.8 °C 10.0 °C 11.8 °C 89% 1015.2 hPa 73 W/m² 0.0 mm 0.000 mm 4.3 km/h
11:20 11.8 °C 10.0 °C 11.8 °C 89% 1015.4 hPa 95 W/m² 0.0 mm 0.000 mm 6.2 km/h
11:25 11.8 °C 10.0 °C 11.8 °C 89% 1015.4 hPa 112 W/m² 0.0 mm 0.000 mm 4.9 km/h
11:30 11.9 °C 10.3 °C 11.9 °C 90% 1015.4 hPa 153 W/m² 0.0 mm 0.000 mm 0.9 km/h
11:35 12.0 °C 10.2 °C 12.0 °C 89% 1015.5 hPa 136 W/m² 0.0 mm 0.000 mm 3.9 km/h
11:40 12.1 °C 10.2 °C 12.1 °C 88% 1015.5 hPa 145 W/m² 0.0 mm 0.000 mm 5.6 km/h
11:45 12.2 °C 10.3 °C 12.2 °C 88% 1015.5 hPa 158 W/m² 0.0 mm 0.000 mm 3.4 km/h
11:50 12.3 °C 10.4 °C 12.3 °C 88% 1015.6 hPa 254 W/m² 0.0 mm 0.000 mm 4.3 km/h
11:55 12.6 °C 10.3 °C 12.6 °C 86% 1015.5 hPa 371 W/m² 0.0 mm 0.000 mm 5.8 km/h
12:00 13.0 °C 10.7 °C 12.2 °C 86% 1015.5 hPa 426 W/m² 0.0 mm 0.102 mm 7.6 km/h
12:05 13.3 °C 10.7 °C 10.9 °C 84% 1015.6 hPa 460 W/m² 0.0 mm 0.000 mm 10.7 km/h
12:10 13.4 °C 10.8 °C 10.7 °C 84% 1015.6 hPa 344 W/m² 0.0 mm 0.000 mm 11.3 km/h
12:15 13.4 °C 10.4 °C 12.1 °C 82% 1015.5 hPa 347 W/m² 0.0 mm 0.000 mm 8.5 km/h
12:20 13.6 °C 10.8 °C 13.4 °C 83% 1015.6 hPa 369 W/m² 0.0 mm 0.000 mm 6.7 km/h
12:25 13.7 °C 10.9 °C 13.3 °C 83% 1015.6 hPa 406 W/m² 0.0 mm 0.000 mm 7.0 km/h
12:30 13.9 °C 10.9 °C 12.5 °C 82% 1015.6 hPa 426 W/m² 0.0 mm 0.000 mm 8.8 km/h
12:35 14.0 °C 10.8 °C 13.3 °C 81% 1015.5 hPa 460 W/m² 0.0 mm 0.000 mm 7.6 km/h
12:40 14.2 °C 11.0 °C 14.2 °C 81% 1015.6 hPa 487 W/m² 0.0 mm 0.000 mm 6.4 km/h
12:45 14.2 °C 11.0 °C 11.5 °C 81% 1015.5 hPa 395 W/m² 0.0 mm 0.000 mm 11.7 km/h
12:50 14.3 °C 11.3 °C 13.7 °C 82% 1015.4 hPa 450 W/m² 0.0 mm 0.000 mm 7.5 km/h
12:55 14.7 °C 11.1 °C 14.7 °C 79% 1015.4 hPa 557 W/m² 0.0 mm 0.000 mm 6.4 km/h
13:00 14.9 °C 11.3 °C 12.8 °C 79% 1015.4 hPa 407 W/m² 0.0 mm 0.254 mm 10.4 km/h
13:05 14.9 °C 11.1 °C 12.2 °C 78% 1015.5 hPa 352 W/m² 0.0 mm 0.000 mm 11.9 km/h
13:10 14.7 °C 11.1 °C 12.4 °C 79% 1015.4 hPa 430 W/m² 0.0 mm 0.000 mm 10.8 km/h
13:15 14.7 °C 11.1 °C 10.8 °C 79% 1015.3 hPa 461 W/m² 0.0 mm 0.000 mm 15.0 km/h
13:20 14.9 °C 11.1 °C 12.0 °C 78% 1015.5 hPa 948 W/m² 0.0 mm 0.000 mm 12.3 km/h
13:25 15.2 °C 11.4 °C 13.2 °C 78% 1015.5 hPa 935 W/m² 0.0 mm 0.000 mm 10.3 km/h
13:30 15.3 °C 11.5 °C 14.7 °C 78% 1015.5 hPa 435 W/m² 0.0 mm 0.000 mm 7.4 km/h
13:35 15.9 °C 11.9 °C 15.3 °C 77% 1015.6 hPa 1069 W/m² 0.0 mm 0.000 mm 7.6 km/h
13:40 16.2 °C 12.0 °C 13.9 °C 76% 1015.5 hPa 1016 W/m² 0.0 mm 0.000 mm 11.3 km/h
13:45 16.2 °C 11.8 °C 14.1 °C 75% 1015.5 hPa 680 W/m² 0.0 mm 0.000 mm 10.9 km/h
13:50 16.4 °C 11.5 °C 14.3 °C 73% 1015.5 hPa 917 W/m² 0.0 mm 0.000 mm 11.0 km/h
13:55 16.2 °C 11.1 °C 13.1 °C 72% 1015.5 hPa 928 W/m² 0.0 mm 0.000 mm 13.5 km/h
14:00 16.4 °C 10.9 °C 14.1 °C 70% 1015.5 hPa 870 W/m² 0.0 mm 0.406 mm 11.5 km/h
14:05 16.5 °C 10.8 °C 13.4 °C 69% 1015.5 hPa 685 W/m² 0.0 mm 0.000 mm 13.9 km/h
14:10 16.6 °C 11.5 °C 14.0 °C 72% 1015.4 hPa 838 W/m² 0.0 mm 0.000 mm 12.2 km/h
14:15 16.6 °C 11.3 °C 15.3 °C 71% 1015.5 hPa 507 W/m² 0.0 mm 0.000 mm 9.1 km/h
14:20 16.4 °C 10.9 °C 14.1 °C 70% 1015.6 hPa 549 W/m² 0.0 mm 0.000 mm 11.4 km/h
14:25 16.6 °C 10.4 °C 13.6 °C 67% 1015.6 hPa 992 W/m² 0.0 mm 0.000 mm 13.5 km/h
14:30 16.8 °C 10.9 °C 16.3 °C 68% 1015.5 hPa 886 W/m² 0.0 mm 0.000 mm 7.4 km/h
14:35 16.7 °C 11.0 °C 15.0 °C 69% 1015.6 hPa 610 W/m² 0.0 mm 0.000 mm 10.1 km/h
14:40 16.4 °C 10.7 °C 15.4 °C 69% 1015.6 hPa 431 W/m² 0.0 mm 0.000 mm 8.3 km/h
14:45 16.3 °C 11.0 °C 16.3 °C 71% 1015.7 hPa 310 W/m² 0.0 mm 0.000 mm 5.0 km/h
14:50 16.1 °C 10.8 °C 16.1 °C 71% 1015.8 hPa 310 W/m² 0.0 mm 0.000 mm 6.3 km/h
14:55 15.9 °C 10.6 °C 15.9 °C 71% 1015.7 hPa 249 W/m² 0.0 mm 0.000 mm 6.5 km/h
15:00 15.4 °C 10.2 °C 12.3 °C 71% 1015.8 hPa 203 W/m² 0.0 mm 0.331 mm 13.1 km/h
15:05 15.1 °C 10.1 °C 13.1 °C 72% 1015.8 hPa 206 W/m² 0.0 mm 0.000 mm 10.4 km/h
15:10 14.9 °C 10.3 °C 13.7 °C 74% 1015.7 hPa 207 W/m² 0.0 mm 0.000 mm 8.6 km/h
15:15 14.8 °C 10.4 °C 14.6 °C 75% 1015.6 hPa 238 W/m² 0.0 mm 0.000 mm 6.7 km/h
15:20 14.6 °C 10.2 °C 12.4 °C 75% 1015.8 hPa 215 W/m² 0.0 mm 0.000 mm 10.6 km/h
15:25 14.5 °C 10.3 °C 14.0 °C 76% 1015.8 hPa 228 W/m² 0.0 mm 0.000 mm 7.2 km/h
15:30 14.6 °C 10.6 °C 14.6 °C 77% 1015.9 hPa 331 W/m² 0.0 mm 0.000 mm 3.7 km/h
15:35 14.8 °C 10.6 °C 14.1 °C 76% 1015.8 hPa 363 W/m² 0.0 mm 0.000 mm 7.6 km/h
15:40 15.0 °C 11.0 °C 13.6 °C 77% 1015.7 hPa 433 W/m² 0.0 mm 0.000 mm 8.9 km/h
15:45 15.2 °C 11.0 °C 15.2 °C 76% 1015.9 hPa 387 W/m² 0.0 mm 0.000 mm 6.0 km/h
15:50 15.6 °C 10.8 °C 14.0 °C 73% 1016.1 hPa 419 W/m² 0.0 mm 0.000 mm 9.6 km/h
15:55 15.4 °C 10.6 °C 14.0 °C 73% 1015.9 hPa 369 W/m² 0.0 mm 0.000 mm 9.1 km/h
16:00 15.4 °C 10.2 °C 14.3 °C 71% 1016.1 hPa 298 W/m² 0.0 mm 0.203 mm 8.4 km/h
16:05 14.9 °C 9.9 °C 12.8 °C 72% 1016.1 hPa 203 W/m² 0.0 mm 0.000 mm 10.4 km/h
16:10 14.8 °C 10.0 °C 13.3 °C 73% 1016.0 hPa 206 W/m² 0.0 mm 0.000 mm 9.1 km/h
16:15 14.7 °C 10.1 °C 14.1 °C 74% 1016.1 hPa 221 W/m² 0.0 mm 0.000 mm 7.4 km/h
16:20 14.7 °C 10.1 °C 13.1 °C 74% 1016.1 hPa 225 W/m² 0.0 mm 0.000 mm 9.4 km/h
16:25 14.8 °C 10.6 °C 14.8 °C 76% 1015.9 hPa 352 W/m² 0.0 mm 0.000 mm 4.4 km/h
16:30 15.1 °C 10.3 °C 15.1 °C 73% 1016.0 hPa 318 W/m² 0.0 mm 0.000 mm 6.0 km/h
16:35 15.1 °C 10.1 °C 14.8 °C 72% 1016.2 hPa 298 W/m² 0.0 mm 0.000 mm 7.0 km/h
16:40 15.1 °C 10.1 °C 13.5 °C 72% 1015.9 hPa 323 W/m² 0.0 mm 0.000 mm 9.4 km/h
16:45 14.9 °C 9.9 °C 12.0 °C 72% 1016.0 hPa 294 W/m² 0.0 mm 0.000 mm 12.3 km/h
16:50 14.8 °C 10.0 °C 14.2 °C 73% 1016.0 hPa 283 W/m² 0.0 mm 0.000 mm 7.4 km/h
16:55 14.7 °C 9.5 °C 11.8 °C 71% 1016.1 hPa 264 W/m² 0.0 mm 0.000 mm 12.3 km/h
17:00 14.7 °C 9.7 °C 14.1 °C 72% 1016.1 hPa 212 W/m² 0.0 mm 0.178 mm 7.5 km/h
17:05 14.6 °C 9.8 °C 14.6 °C 73% 1016.1 hPa 194 W/m² 0.0 mm 0.000 mm 5.3 km/h
17:10 14.5 °C 10.1 °C 14.5 °C 75% 1016.2 hPa 217 W/m² 0.0 mm 0.000 mm 4.8 km/h
17:15 14.6 °C 10.2 °C 14.3 °C 75% 1016.1 hPa 284 W/m² 0.0 mm 0.000 mm 6.9 km/h
17:20 14.6 °C 9.8 °C 14.0 °C 73% 1016.1 hPa 254 W/m² 0.0 mm 0.000 mm 7.5 km/h
17:25 14.6 °C 10.0 °C 13.4 °C 74% 1016.1 hPa 243 W/m² 0.0 mm 0.000 mm 8.5 km/h
17:30 14.6 °C 10.0 °C 14.6 °C 74% 1016.1 hPa 222 W/m² 0.0 mm 0.000 mm 6.2 km/h
17:35 14.5 °C 9.9 °C 14.5 °C 74% 1016.0 hPa 208 W/m² 0.0 mm 0.000 mm 4.6 km/h
17:40 14.5 °C 9.9 °C 14.5 °C 74% 1015.8 hPa 229 W/m² 0.0 mm 0.000 mm 3.3 km/h
17:45 14.6 °C 10.0 °C 14.6 °C 74% 1015.7 hPa 267 W/m² 0.0 mm 0.000 mm 3.9 km/h
17:50 14.8 °C 10.2 °C 14.8 °C 74% 1016.0 hPa 376 W/m² 0.0 mm 0.000 mm 4.8 km/h
17:55 15.2 °C 10.2 °C 15.2 °C 72% 1016.1 hPa 515 W/m² 0.0 mm 0.000 mm 5.0 km/h
18:00 15.6 °C 9.7 °C 15.3 °C 68% 1015.9 hPa 479 W/m² 0.0 mm 0.000 mm 7.0 km/h
18:05 15.7 °C 10.0 °C 15.7 °C 69% 1015.9 hPa 424 W/m² 0.0 mm 0.177 mm 5.8 km/h
18:10 15.7 °C 10.0 °C 15.7 °C 69% 1015.9 hPa 405 W/m² 0.0 mm 0.000 mm 5.6 km/h
18:15 15.6 °C 10.1 °C 15.6 °C 70% 1015.9 hPa 243 W/m² 0.0 mm 0.000 mm 3.4 km/h
18:20 15.5 °C 9.8 °C 15.5 °C 69% 1015.8 hPa 229 W/m² 0.0 mm 0.000 mm 2.2 km/h
18:25 15.1 °C 9.5 °C 15.1 °C 69% 1015.7 hPa 214 W/m² 0.0 mm 0.000 mm 4.7 km/h
18:30 14.9 °C 9.3 °C 14.9 °C 69% 1015.9 hPa 245 W/m² 0.0 mm 0.000 mm 4.5 km/h
18:35 14.9 °C 9.5 °C 14.9 °C 70% 1015.8 hPa 207 W/m² 0.0 mm 0.000 mm 6.0 km/h
18:40 14.9 °C 9.5 °C 14.9 °C 70% 1015.9 hPa 178 W/m² 0.0 mm 0.000 mm 3.1 km/h
18:45 14.9 °C 9.3 °C 14.9 °C 69% 1015.9 hPa 164 W/m² 0.0 mm 0.000 mm 3.6 km/h
18:50 14.8 °C 9.0 °C 14.8 °C 68% 1016.0 hPa 166 W/m² 0.0 mm 0.000 mm 4.2 km/h
18:55 14.8 °C 9.2 °C 14.8 °C 69% 1015.9 hPa 194 W/m² 0.0 mm 0.000 mm 3.7 km/h
19:00 14.9 °C 9.5 °C 14.9 °C 70% 1015.9 hPa 162 W/m² 0.0 mm 0.153 mm 2.2 km/h
19:05 15.0 °C 9.6 °C 15.0 °C 70% 1016.0 hPa 142 W/m² 0.0 mm 0.000 mm 3.9 km/h
19:10 14.9 °C 9.5 °C 14.9 °C 70% 1016.1 hPa 119 W/m² 0.0 mm 0.000 mm 2.7 km/h
19:15 14.8 °C 9.6 °C 14.8 °C 71% 1016.1 hPa 100 W/m² 0.0 mm 0.000 mm 1.1 km/h
19:20 14.7 °C 9.1 °C 14.7 °C 69% 1016.0 hPa 90 W/m² 0.0 mm 0.000 mm 1.4 km/h
19:25 14.6 °C 9.0 °C 14.6 °C 69% 1016.1 hPa 83 W/m² 0.0 mm 0.000 mm 0.1 km/h
19:30 14.5 °C 9.3 °C 14.5 °C 71% 1016.1 hPa 76 W/m² 0.0 mm 0.000 mm 0.1 km/h
19:35 14.4 °C 9.0 °C 14.4 °C 70% 1016.1 hPa 70 W/m² 0.0 mm 0.000 mm 0.1 km/h
19:40 14.4 °C 9.2 °C 14.4 °C 71% 1015.8 hPa 67 W/m² 0.0 mm 0.000 mm 0.0 km/h
19:45 14.3 °C 9.1 °C 14.3 °C 71% 1015.9 hPa 63 W/m² 0.0 mm 0.000 mm 0.1 km/h
19:50 14.2 °C 9.2 °C 14.2 °C 72% 1015.9 hPa 60 W/m² 0.0 mm 0.000 mm 0.0 km/h
19:55 14.0 °C 9.2 °C 14.0 °C 73% 1016.0 hPa 56 W/m² 0.0 mm 0.000 mm 0.0 km/h
20:00 13.8 °C 9.2 °C 13.8 °C 74% 1015.9 hPa 49 W/m² 0.0 mm 0.051 mm 0.0 km/h
20:05 13.7 °C 9.3 °C 13.7 °C 75% 1015.9 hPa 42 W/m² 0.0 mm 0.000 mm 0.0 km/h
20:10 13.6 °C 9.4 °C 13.6 °C 76% 1015.9 hPa 40 W/m² 0.0 mm 0.000 mm 0.0 km/h
20:15 13.5 °C 9.4 °C 13.5 °C 76% 1016.0 hPa 45 W/m² 0.0 mm 0.000 mm 0.0 km/h
20:20 13.4 °C 9.3 °C 13.4 °C 76% 1015.9 hPa 45 W/m² 0.0 mm 0.000 mm 0.0 km/h
20:25 13.3 °C 9.2 °C 13.3 °C 76% 1016.1 hPa 33 W/m² 0.0 mm 0.000 mm 0.0 km/h
20:30 13.3 °C 9.2 °C 13.3 °C 76% 1016.2 hPa 28 W/m² 0.0 mm 0.000 mm 0.0 km/h
20:35 13.3 °C 9.2 °C 13.3 °C 76% 1016.2 hPa 25 W/m² 0.0 mm 0.000 mm 0.0 km/h
20:40 13.3 °C 8.8 °C 13.3 °C 74% 1016.2 hPa 21 W/m² 0.0 mm 0.000 mm 0.4 km/h
20:45 13.2 °C 8.7 °C 13.2 °C 74% 1016.1 hPa 17 W/m² 0.0 mm 0.000 mm 0.7 km/h
20:50 13.1 °C 8.4 °C 13.1 °C 73% 1016.4 hPa 14 W/m² 0.0 mm 0.000 mm 1.0 km/h
20:55 13.0 °C 8.3 °C 13.0 °C 73% 1016.4 hPa 11 W/m² 0.0 mm 0.000 mm 3.1 km/h
21:00 12.8 °C 8.1 °C 12.8 °C 73% 1016.4 hPa 8 W/m² 0.0 mm 0.025 mm 2.4 km/h
21:05 12.7 °C 8.0 °C 12.7 °C 73% 1016.4 hPa 4 W/m² 0.0 mm 0.000 mm 3.4 km/h
21:10 12.7 °C 8.0 °C 12.7 °C 73% 1016.2 hPa 0 W/m² 0.0 mm 0.000 mm 3.9 km/h
21:15 12.6 °C 7.9 °C 12.6 °C 73% 1016.3 hPa 0 W/m² 0.0 mm 0.000 mm 4.2 km/h
21:20 12.4 °C 7.9 °C 12.4 °C 74% 1016.5 hPa 0 W/m² 0.0 mm 0.000 mm 3.4 km/h
21:25 12.1 °C 8.0 °C 12.1 °C 76% 1016.6 hPa 0 W/m² 0.0 mm 0.000 mm 1.4 km/h
21:30 11.8 °C 7.9 °C 11.8 °C 77% 1016.6 hPa 0 W/m² 0.0 mm 0.000 mm 0.2 km/h
21:35 11.7 °C 7.8 °C 11.7 °C 77% 1016.7 hPa 0 W/m² 0.0 mm 0.000 mm 0.7 km/h
21:40 11.8 °C 7.7 °C 11.8 °C 76% 1016.7 hPa 0 W/m² 0.0 mm 0.000 mm 4.5 km/h
21:45 12.0 °C 7.7 °C 12.0 °C 75% 1016.8 hPa 0 W/m² 0.0 mm 0.000 mm 5.3 km/h
21:50 12.1 °C 7.6 °C 12.1 °C 74% 1016.8 hPa 0 W/m² 0.0 mm 0.000 mm 5.0 km/h
21:55 12.1 °C 7.6 °C 12.1 °C 74% 1016.8 hPa 0 W/m² 0.0 mm 0.000 mm 4.4 km/h
22:00 12.1 °C 7.6 °C 12.1 °C 74% 1016.7 hPa 0 W/m² 0.0 mm 0.025 mm 4.1 km/h
22:05 12.1 °C 7.8 °C 12.1 °C 75% 1016.9 hPa 0 W/m² 0.0 mm 0.000 mm 2.1 km/h
22:10 11.9 °C 7.6 °C 11.9 °C 75% 1016.7 hPa 0 W/m² 0.0 mm 0.000 mm 1.9 km/h
22:15 11.8 °C 7.7 °C 11.8 °C 76% 1016.5 hPa 0 W/m² 0.0 mm 0.000 mm 1.2 km/h
22:20 11.6 °C 7.7 °C 11.6 °C 77% 1016.9 hPa 0 W/m² 0.0 mm 0.000 mm 0.5 km/h
22:25 11.3 °C 7.6 °C 11.3 °C 78% 1016.8 hPa 0 W/m² 0.0 mm 0.000 mm 0.6 km/h
22:30 10.8 °C 7.3 °C 10.8 °C 79% 1016.7 hPa 0 W/m² 0.0 mm 0.000 mm 1.2 km/h
22:35 10.6 °C 7.5 °C 10.6 °C 81% 1016.6 hPa 0 W/m² 0.0 mm 0.000 mm 2.5 km/h
22:40 10.3 °C 7.4 °C 10.3 °C 82% 1016.9 hPa 0 W/m² 0.0 mm 0.000 mm 0.6 km/h
22:45 10.2 °C 7.4 °C 10.2 °C 83% 1016.9 hPa 0 W/m² 0.0 mm 0.000 mm 0.0 km/h
22:50 10.1 °C 7.3 °C 10.1 °C 83% 1017.0 hPa 0 W/m² 0.0 mm 0.000 mm 0.0 km/h
22:55 9.8 °C 7.4 °C 9.8 °C 85% 1016.9 hPa 0 W/m² 0.0 mm 0.000 mm 0.0 km/h
23:00 9.7 °C 7.3 °C 9.7 °C 85% 1016.8 hPa 0 W/m² 0.0 mm 0.026 mm 0.0 km/h
23:05 9.7 °C 7.5 °C 9.7 °C 86% 1017.0 hPa 0 W/m² 0.0 mm 0.000 mm 0.7 km/h
23:10 9.6 °C 7.4 °C 9.6 °C 86% 1016.9 hPa 0 W/m² 0.0 mm 0.000 mm 0.6 km/h
23:15 9.6 °C 7.2 °C 9.6 °C 85% 1016.9 hPa 0 W/m² 0.0 mm 0.000 mm 0.1 km/h
23:20 9.5 °C 7.1 °C 9.5 °C 85% 1017.0 hPa 0 W/m² 0.0 mm 0.000 mm 0.1 km/h